RJAF

Details ICAO RJAF (MMJ)
Name MATSUMOTO
Region Japan
Timezone Asia/Tokyo (UTC+9.0)
Plans Departing 21
Arriving 23
Stats Elevation 2,182 ft / 665 m (AMSL)
Location 36.166758° 137.922670°
Runways 1
Magnetic Variation 7.877° W
Sunrise 2017-12-12 21:51:50 UTC / 2017-12-13 06:51:50 Local
Sunset 2017-12-13 07:35:40 UTC / 2017-12-13 16:35:40 Local
Advertisement - Login to hide

Runways

ID Width Length Bearing (true) Bearing (mag) Surface Threshold Offset Overrun Length
18 150 ft / 46 m 6,575 ft / 2,004 m 171.06° 178.94° Asphalt 0 ft / 0 m 190 ft / 58 m
36 150 ft / 46 m 6,575 ft / 2,004 m 351.06° 358.94° Asphalt 0 ft / 0 m 190 ft / 58 m

Map

Weather


0- 5 10 15 20 25 30 35+ Temperature / ° C

Clouds and Precipitation
Forecast for 2017-12-13 12:00 UTC. Updated 28 minutes ago

Ground ~20,000 ft ~40,000 ft Winds

METAR

RJAF 130709Z 36010KT 7000 -SHSN FEW010 SCT040 BKN050 M01/M03 Q1013 RMK 1ST010 3CU040 6CU050 A2992 2500NW-NE

TAF

Not found
Warning: Do not use this data for real-world aviation or navigation. No guarantee of current accuracy is given.